createdAt,value
2022-10-26T00:00:34.307Z,3.90
2022-10-26T00:03:01.062Z,3.60
2022-10-26T00:05:27.803Z,4.23
2022-10-26T00:07:54.600Z,4.00
2022-10-26T00:10:21.918Z,4.03
2022-10-26T00:12:51.273Z,3.83
2022-10-26T00:15:19.993Z,4.00
2022-10-26T00:17:48.407Z,3.70
2022-10-26T00:20:15.439Z,3.40
2022-10-26T00:22:42.399Z,3.53
2022-10-26T00:25:09.613Z,3.57
2022-10-26T00:27:36.441Z,3.50
2022-10-26T00:30:05.396Z,3.37
2022-10-26T00:32:32.955Z,3.40
2022-10-26T00:35:10.397Z,3.67
2022-10-26T00:37:47.218Z,3.30
2022-10-26T00:40:14.221Z,3.43
2022-10-26T00:42:40.931Z,3.70
2022-10-26T00:45:21.796Z,3.60
2022-10-26T00:47:56.590Z,3.57
2022-10-26T00:50:29.864Z,3.70
2022-10-26T00:52:59.178Z,3.67
2022-10-26T00:55:32.044Z,4.70
2022-10-26T00:58:00.551Z,5.33
2022-10-26T01:00:27.315Z,5.40
2022-10-26T01:02:57.231Z,5.37
2022-10-26T01:05:24.637Z,5.93
2022-10-26T01:07:52.239Z,5.83
2022-10-26T01:10:19.184Z,5.50
2022-10-26T01:12:46.277Z,6.47
2022-10-26T01:15:13.536Z,5.57
2022-10-26T01:17:46.675Z,5.67
2022-10-26T01:20:19.501Z,5.83
2022-10-26T01:23:13.741Z,6.17
2022-10-26T01:26:05.642Z,5.77
2022-10-26T01:28:35.355Z,5.53
2022-10-26T01:31:07.628Z,5.83
2022-10-26T01:33:49.492Z,5.80
2022-10-26T01:39:16.379Z,6.27
2022-10-26T01:41:51.358Z,5.67
2022-10-26T01:44:39.568Z,5.43
2022-10-26T01:47:07.981Z,5.23
2022-10-26T01:50:00.253Z,5.30
2022-10-26T01:52:28.112Z,5.67
2022-10-26T01:55:02.744Z,5.77
2022-10-26T01:57:33.778Z,5.87
2022-10-26T02:00:10.489Z,5.30
2022-10-26T02:02:50.231Z,5.43
2022-10-26T02:05:44.852Z,6.03
2022-10-26T02:08:26.727Z,5.73
2022-10-26T02:11:15.157Z,6.33
2022-10-26T02:14:00.250Z,5.73
2022-10-26T02:16:27.564Z,5.47
2022-10-26T02:19:19.714Z,5.63
2022-10-26T02:21:50.944Z,5.73
2022-10-26T02:24:19.320Z,5.77
2022-10-26T02:26:48.581Z,5.23
2022-10-26T02:29:19.330Z,5.60
2022-10-26T02:31:49.153Z,5.70
2022-10-26T02:34:21.536Z,5.17
2022-10-26T02:36:53.147Z,5.73
2022-10-26T02:39:20.690Z,5.10
2022-10-26T02:41:48.840Z,5.47
2022-10-26T02:44:23.180Z,4.77
2022-10-26T02:46:51.536Z,5.63
2022-10-26T02:49:18.883Z,5.67
2022-10-26T02:51:53.621Z,5.73
2022-10-26T02:54:34.952Z,5.83
2022-10-26T02:57:15.104Z,5.60
2022-10-26T02:59:44.810Z,5.43
2022-10-26T03:02:12.896Z,5.70
2022-10-26T03:04:39.747Z,4.97
2022-10-26T03:07:06.485Z,6.33
2022-10-26T03:09:33.273Z,4.83
2022-10-26T03:12:00.104Z,5.37
2022-10-26T03:14:26.841Z,5.17
2022-10-26T03:16:53.668Z,5.33
2022-10-26T03:19:20.461Z,5.17
2022-10-26T03:21:47.263Z,5.50
2022-10-26T03:24:14.007Z,5.50
2022-10-26T03:26:40.930Z,5.97
2022-10-26T03:29:08.972Z,4.77
2022-10-26T03:31:35.920Z,5.10
2022-10-26T03:34:02.640Z,5.20
2022-10-26T03:36:29.441Z,5.17
2022-10-26T03:38:56.112Z,5.10
2022-10-26T03:41:22.861Z,4.47
2022-10-26T03:43:49.553Z,5.13
2022-10-26T03:46:16.337Z,5.30
2022-10-26T03:48:43.100Z,4.83
2022-10-26T03:51:09.877Z,5.07
2022-10-26T03:53:36.666Z,5.20
2022-10-26T03:56:03.641Z,6.53
2022-10-26T03:58:30.418Z,4.47
2022-10-26T04:00:57.179Z,5.43
2022-10-26T04:03:23.934Z,5.13
2022-10-26T04:05:50.817Z,5.60
2022-10-26T04:08:17.659Z,5.17
2022-10-26T04:10:46.071Z,5.30
2022-10-26T04:13:12.873Z,5.37
2022-10-26T04:15:40.640Z,5.47
2022-10-26T04:18:08.732Z,5.43
2022-10-26T04:20:36.682Z,5.33
2022-10-26T04:23:06.388Z,6.20
2022-10-26T04:25:33.968Z,5.40
2022-10-26T04:28:02.455Z,5.10
2022-10-26T04:30:29.275Z,5.40
2022-10-26T04:32:56.256Z,5.50
2022-10-26T04:35:23.126Z,5.27
2022-10-26T04:37:50.027Z,5.53
2022-10-26T04:40:16.928Z,5.37
2022-10-26T04:42:47.927Z,5.53
2022-10-26T04:45:16.881Z,5.90
2022-10-26T04:47:43.970Z,5.27
2022-10-26T04:50:12.997Z,5.30
2022-10-26T04:52:40.823Z,5.40
2022-10-26T04:55:08.064Z,5.73
2022-10-26T04:57:35.457Z,4.80
2022-10-26T05:00:04.079Z,5.60
2022-10-26T05:02:31.038Z,5.07
2022-10-26T05:04:57.957Z,5.27
2022-10-26T05:07:24.688Z,5.10
2022-10-26T05:09:51.406Z,5.20
2022-10-26T05:12:18.180Z,5.50
2022-10-26T05:14:44.898Z,4.93
2022-10-26T05:17:11.789Z,6.07
2022-10-26T05:19:38.717Z,5.03
2022-10-26T05:22:05.698Z,5.40
2022-10-26T05:24:32.430Z,5.37
2022-10-26T05:26:59.190Z,5.13
2022-10-26T05:29:25.923Z,5.77
2022-10-26T05:31:52.656Z,5.93
2022-10-26T05:34:19.375Z,5.37
2022-10-26T05:36:46.071Z,5.40
2022-10-26T05:39:12.806Z,5.90
2022-10-26T05:41:39.473Z,5.50
2022-10-26T05:44:06.136Z,5.77
2022-10-26T05:46:32.815Z,5.20
2022-10-26T05:49:01.021Z,5.53
2022-10-26T05:51:27.785Z,4.60
2022-10-26T05:53:54.712Z,5.00
2022-10-26T05:56:35.116Z,5.57
2022-10-26T05:59:02.381Z,4.80
2022-10-26T06:01:41.077Z,5.17
2022-10-26T06:04:38.574Z,4.93
2022-10-26T06:07:12.302Z,5.67
2022-10-26T06:09:40.173Z,5.30
2022-10-26T06:12:07.823Z,4.83
2022-10-26T06:14:35.533Z,4.53
2022-10-26T06:17:32.051Z,4.60
2022-10-26T06:20:17.535Z,5.10
2022-10-26T06:23:01.288Z,5.57
2022-10-26T06:25:45.707Z,5.10
2022-10-26T06:31:05.038Z,5.37
2022-10-26T06:33:32.244Z,5.00
2022-10-26T06:36:19.742Z,5.33
2022-10-26T06:38:48.263Z,4.70
2022-10-26T06:41:18.998Z,4.50
2022-10-26T06:43:46.276Z,4.57
2022-10-26T06:46:48.046Z,4.83
2022-10-26T06:49:36.330Z,4.67
2022-10-26T06:52:18.205Z,4.33
2022-10-26T06:54:49.721Z,4.67
2022-10-26T06:57:21.484Z,4.50
2022-10-26T06:59:57.113Z,4.33
2022-10-26T07:02:24.439Z,4.17
2022-10-26T07:04:51.329Z,3.97
2022-10-26T07:07:23.636Z,4.60
2022-10-26T07:09:50.688Z,4.70
2022-10-26T07:12:17.571Z,5.13
2022-10-26T07:14:44.388Z,4.80
2022-10-26T07:17:11.681Z,4.90
2022-10-26T07:19:40.435Z,4.77
2022-10-26T07:22:07.484Z,4.57
2022-10-26T07:24:34.400Z,4.90
2022-10-26T07:27:01.118Z,4.90
2022-10-26T07:29:28.173Z,4.80
2022-10-26T07:31:55.087Z,4.20
2022-10-26T07:34:21.859Z,4.27
2022-10-26T07:36:48.648Z,4.17
2022-10-26T07:39:15.371Z,4.07
2022-10-26T07:41:42.302Z,3.93
2022-10-26T07:44:09.152Z,4.00
2022-10-26T07:46:35.861Z,4.93
2022-10-26T07:49:02.624Z,4.27
2022-10-26T07:51:29.451Z,3.90
2022-10-26T07:53:56.220Z,4.10
2022-10-26T07:56:22.893Z,4.57
2022-10-26T07:58:55.356Z,4.00
2022-10-26T08:01:22.458Z,4.10
2022-10-26T08:03:53.599Z,3.60
2022-10-26T08:06:22.528Z,3.30
2022-10-26T08:08:50.059Z,4.03
2022-10-26T08:11:17.592Z,3.60
2022-10-26T08:13:44.438Z,4.27
2022-10-26T08:16:11.483Z,4.00
2022-10-26T08:18:38.331Z,3.60
2022-10-26T08:21:13.756Z,4.27
2022-10-26T08:23:45.281Z,3.80
2022-10-26T08:26:12.007Z,3.80
2022-10-26T08:28:39.772Z,3.90
2022-10-26T08:31:07.572Z,4.30
2022-10-26T08:33:34.368Z,4.27
2022-10-26T08:36:02.853Z,3.90
2022-10-26T08:38:29.793Z,4.53
2022-10-26T08:40:57.969Z,4.90
2022-10-26T08:43:42.803Z,4.33
2022-10-26T08:46:23.586Z,4.77
2022-10-26T08:48:55.800Z,4.60
2022-10-26T08:51:35.611Z,4.60
2022-10-26T08:54:17.224Z,4.33
2022-10-26T08:56:52.831Z,4.43
2022-10-26T08:59:55.508Z,4.60
2022-10-26T09:02:22.439Z,4.30
2022-10-26T09:04:49.420Z,4.90
2022-10-26T09:07:31.766Z,4.57
2022-10-26T09:10:18.767Z,4.60
2022-10-26T09:12:57.338Z,4.27
2022-10-26T09:15:40.234Z,4.30
2022-10-26T09:18:35.108Z,4.90
2022-10-26T09:21:15.479Z,4.23
2022-10-26T09:24:00.675Z,4.50
2022-10-26T09:27:18.023Z,4.17
2022-10-26T09:29:46.836Z,4.30
2022-10-26T09:32:23.456Z,4.10
2022-10-26T09:34:55.133Z,4.60
2022-10-26T09:37:37.994Z,4.33
2022-10-26T09:40:13.369Z,3.73
2022-10-26T09:42:42.144Z,3.80
2022-10-26T09:45:36.789Z,3.93
2022-10-26T09:48:30.201Z,3.97
2022-10-26T09:51:02.051Z,3.40
2022-10-26T09:53:32.086Z,4.13
2022-10-26T09:56:06.525Z,3.57
2022-10-26T09:58:44.825Z,3.90
2022-10-26T10:01:36.945Z,3.47
2022-10-26T10:04:26.903Z,3.60
2022-10-26T10:07:13.976Z,3.40
2022-10-26T10:09:40.967Z,3.90
2022-10-26T10:12:19.807Z,3.37
2022-10-26T10:14:57.881Z,3.67
2022-10-26T10:17:25.673Z,3.30
2022-10-26T10:19:52.613Z,3.60
2022-10-26T10:22:24.806Z,3.83
2022-10-26T10:25:00.181Z,3.87
2022-10-26T10:27:28.806Z,3.50
2022-10-26T10:30:01.319Z,4.10
2022-10-26T10:32:35.643Z,3.93
2022-10-26T10:35:24.063Z,3.77
2022-10-26T10:37:51.664Z,3.50
2022-10-26T10:40:21.283Z,3.43
2022-10-26T10:42:49.719Z,3.40
2022-10-26T10:45:29.223Z,3.60
2022-10-26T10:48:05.994Z,3.43
2022-10-26T10:50:33.988Z,2.87
2022-10-26T10:53:22.680Z,3.70
2022-10-26T10:55:54.821Z,3.33
2022-10-26T10:58:38.279Z,3.50
2022-10-26T11:01:12.830Z,3.77
2022-10-26T11:04:10.517Z,3.40
2022-10-26T11:06:40.419Z,3.37
2022-10-26T11:09:13.536Z,3.17
2022-10-26T11:11:55.107Z,4.00
2022-10-26T11:14:28.451Z,3.50
2022-10-26T11:17:25.480Z,3.87
2022-10-26T11:20:03.629Z,4.80
2022-10-26T11:22:36.545Z,4.40
2022-10-26T11:25:07.596Z,4.83
2022-10-26T11:28:17.352Z,5.07
2022-10-26T11:30:55.416Z,4.20
2022-10-26T11:33:36.830Z,4.53
2022-10-26T11:36:07.675Z,4.20
2022-10-26T11:38:56.810Z,3.93
2022-10-26T11:41:45.896Z,4.00
